sensor_id;sensor_type;location;lat;lon;timestamp;P1;durP1;ratioP1;P2;durP2;ratioP2
67185;SDS011;54116;53.518;49.398;2024-01-30T00:01:22;8.50;;;2.70;;
67185;SDS011;54116;53.518;49.398;2024-01-30T00:03:48;8.07;;;2.90;;
67185;SDS011;54116;53.518;49.398;2024-01-30T00:06:20;7.25;;;2.30;;
67185;SDS011;54116;53.518;49.398;2024-01-30T00:08:49;7.35;;;3.10;;
67185;SDS011;54116;53.518;49.398;2024-01-30T00:11:15;9.32;;;3.10;;
67185;SDS011;54116;53.518;49.398;2024-01-30T00:13:42;9.13;;;3.22;;
67185;SDS011;54116;53.518;49.398;2024-01-30T00:16:08;7.53;;;2.83;;
67185;SDS011;54116;53.518;49.398;2024-01-30T00:21:01;9.88;;;3.03;;
67185;SDS011;54116;53.518;49.398;2024-01-30T00:23:27;18.10;;;3.60;;
67185;SDS011;54116;53.518;49.398;2024-01-30T00:25:53;7.95;;;3.05;;
67185;SDS011;54116;53.518;49.398;2024-01-30T00:28:19;8.90;;;3.20;;
67185;SDS011;54116;53.518;49.398;2024-01-30T00:30:45;8.50;;;3.72;;
67185;SDS011;54116;53.518;49.398;2024-01-30T00:33:11;9.98;;;3.28;;
67185;SDS011;54116;53.518;49.398;2024-01-30T00:35:37;10.48;;;3.22;;
67185;SDS011;54116;53.518;49.398;2024-01-30T00:38:03;9.20;;;3.30;;
67185;SDS011;54116;53.518;49.398;2024-01-30T00:40:30;9.52;;;3.28;;
67185;SDS011;54116;53.518;49.398;2024-01-30T00:42:56;11.27;;;3.65;;
67185;SDS011;54116;53.518;49.398;2024-01-30T00:45:22;12.48;;;4.03;;
67185;SDS011;54116;53.518;49.398;2024-01-30T00:47:49;9.73;;;3.75;;
67185;SDS011;54116;53.518;49.398;2024-01-30T00:50:15;10.70;;;3.88;;
67185;SDS011;54116;53.518;49.398;2024-01-30T00:52:41;10.68;;;3.70;;
67185;SDS011;54116;53.518;49.398;2024-01-30T00:55:10;10.43;;;3.58;;
67185;SDS011;54116;53.518;49.398;2024-01-30T00:57:36;10.15;;;3.47;;
67185;SDS011;54116;53.518;49.398;2024-01-30T01:00:03;10.00;;;3.67;;
67185;SDS011;54116;53.518;49.398;2024-01-30T01:02:31;8.88;;;3.83;;
67185;SDS011;54116;53.518;49.398;2024-01-30T01:04:57;10.45;;;3.50;;
67185;SDS011;54116;53.518;49.398;2024-01-30T01:07:23;9.07;;;3.58;;
67185;SDS011;54116;53.518;49.398;2024-01-30T01:09:50;9.93;;;3.72;;
67185;SDS011;54116;53.518;49.398;2024-01-30T01:12:16;9.70;;;3.33;;
67185;SDS011;54116;53.518;49.398;2024-01-30T01:14:42;11.02;;;3.58;;
67185;SDS011;54116;53.518;49.398;2024-01-30T01:17:09;12.15;;;4.18;;
67185;SDS011;54116;53.518;49.398;2024-01-30T01:19:35;10.55;;;3.60;;
67185;SDS011;54116;53.518;49.398;2024-01-30T01:22:01;10.95;;;4.03;;
67185;SDS011;54116;53.518;49.398;2024-01-30T01:24:31;10.13;;;3.60;;
67185;SDS011;54116;53.518;49.398;2024-01-30T01:27:00;9.77;;;4.07;;
67185;SDS011;54116;53.518;49.398;2024-01-30T01:29:26;10.10;;;3.53;;
67185;SDS011;54116;53.518;49.398;2024-01-30T01:31:54;10.23;;;3.42;;
67185;SDS011;54116;53.518;49.398;2024-01-30T01:34:21;11.55;;;4.13;;
67185;SDS011;54116;53.518;49.398;2024-01-30T01:36:49;10.00;;;3.78;;
67185;SDS011;54116;53.518;49.398;2024-01-30T01:39:16;9.77;;;3.60;;
67185;SDS011;54116;53.518;49.398;2024-01-30T01:41:42;9.93;;;4.25;;
67185;SDS011;54116;53.518;49.398;2024-01-30T01:44:09;10.85;;;3.50;;
67185;SDS011;54116;53.518;49.398;2024-01-30T01:49:05;10.07;;;3.58;;
67185;SDS011;54116;53.518;49.398;2024-01-30T01:51:33;11.25;;;3.63;;
67185;SDS011;54116;53.518;49.398;2024-01-30T01:54:01;9.98;;;4.00;;
67185;SDS011;54116;53.518;49.398;2024-01-30T01:56:30;11.38;;;3.78;;
67185;SDS011;54116;53.518;49.398;2024-01-30T01:58:59;9.68;;;3.63;;
67185;SDS011;54116;53.518;49.398;2024-01-30T02:01:26;9.07;;;3.35;;
67185;SDS011;54116;53.518;49.398;2024-01-30T02:03:54;11.00;;;4.00;;
67185;SDS011;54116;53.518;49.398;2024-01-30T02:06:21;9.32;;;3.72;;
67185;SDS011;54116;53.518;49.398;2024-01-30T02:08:47;10.50;;;3.97;;
67185;SDS011;54116;53.518;49.398;2024-01-30T02:11:13;11.85;;;4.30;;
67185;SDS011;54116;53.518;49.398;2024-01-30T02:13:40;12.57;;;4.30;;
67185;SDS011;54116;53.518;49.398;2024-01-30T02:16:06;10.88;;;3.83;;
67185;SDS011;54116;53.518;49.398;2024-01-30T02:18:32;9.38;;;3.58;;
67185;SDS011;54116;53.518;49.398;2024-01-30T02:20:59;7.90;;;3.40;;
67185;SDS011;54116;53.518;49.398;2024-01-30T02:23:30;9.15;;;3.85;;
67185;SDS011;54116;53.518;49.398;2024-01-30T02:25:58;10.32;;;3.65;;
67185;SDS011;54116;53.518;49.398;2024-01-30T02:28:24;10.02;;;3.80;;
67185;SDS011;54116;53.518;49.398;2024-01-30T02:30:50;10.07;;;3.92;;
67185;SDS011;54116;53.518;49.398;2024-01-30T02:33:16;11.25;;;3.88;;
67185;SDS011;54116;53.518;49.398;2024-01-30T02:35:42;10.90;;;4.07;;
67185;SDS011;54116;53.518;49.398;2024-01-30T02:38:08;8.73;;;3.40;;
67185;SDS011;54116;53.518;49.398;2024-01-30T02:40:34;8.48;;;3.17;;
67185;SDS011;54116;53.518;49.398;2024-01-30T02:43:01;9.43;;;3.60;;
67185;SDS011;54116;53.518;49.398;2024-01-30T02:45:28;9.55;;;3.55;;
67185;SDS011;54116;53.518;49.398;2024-01-30T02:47:54;9.57;;;3.72;;
67185;SDS011;54116;53.518;49.398;2024-01-30T02:50:20;9.35;;;3.55;;
67185;SDS011;54116;53.518;49.398;2024-01-30T02:52:46;9.95;;;3.85;;
67185;SDS011;54116;53.518;49.398;2024-01-30T02:55:12;10.52;;;3.78;;
67185;SDS011;54116;53.518;49.398;2024-01-30T02:57:39;10.52;;;3.95;;
67185;SDS011;54116;53.518;49.398;2024-01-30T03:00:05;11.13;;;4.18;;
67185;SDS011;54116;53.518;49.398;2024-01-30T03:02:33;10.23;;;3.95;;
67185;SDS011;54116;53.518;49.398;2024-01-30T03:04:59;11.15;;;4.20;;
67185;SDS011;54116;53.518;49.398;2024-01-30T03:07:25;10.45;;;3.47;;
67185;SDS011;54116;53.518;49.398;2024-01-30T03:09:52;10.23;;;3.78;;
67185;SDS011;54116;53.518;49.398;2024-01-30T03:12:18;9.80;;;3.63;;
67185;SDS011;54116;53.518;49.398;2024-01-30T03:14:44;10.27;;;4.00;;
67185;SDS011;54116;53.518;49.398;2024-01-30T03:17:10;8.48;;;3.75;;
67185;SDS011;54116;53.518;49.398;2024-01-30T03:19:36;11.32;;;3.83;;
67185;SDS011;54116;53.518;49.398;2024-01-30T03:22:02;10.50;;;3.95;;
67185;SDS011;54116;53.518;49.398;2024-01-30T03:24:28;11.38;;;4.07;;
67185;SDS011;54116;53.518;49.398;2024-01-30T03:26:54;10.30;;;4.28;;
67185;SDS011;54116;53.518;49.398;2024-01-30T03:29:20;14.02;;;4.20;;
67185;SDS011;54116;53.518;49.398;2024-01-30T03:31:48;9.73;;;3.28;;
67185;SDS011;54116;53.518;49.398;2024-01-30T03:34:14;10.35;;;4.30;;
67185;SDS011;54116;53.518;49.398;2024-01-30T03:36:40;11.13;;;3.95;;
67185;SDS011;54116;53.518;49.398;2024-01-30T03:39:06;10.68;;;4.20;;
67185;SDS011;54116;53.518;49.398;2024-01-30T03:41:32;10.20;;;4.20;;
67185;SDS011;54116;53.518;49.398;2024-01-30T03:43:58;10.68;;;3.38;;
67185;SDS011;54116;53.518;49.398;2024-01-30T03:48:50;11.10;;;3.92;;
67185;SDS011;54116;53.518;49.398;2024-01-30T03:51:16;9.05;;;3.40;;
67185;SDS011;54116;53.518;49.398;2024-01-30T03:53:43;12.68;;;3.80;;
67185;SDS011;54116;53.518;49.398;2024-01-30T03:58:35;9.57;;;4.13;;
67185;SDS011;54116;53.518;49.398;2024-01-30T04:01:01;10.57;;;3.83;;
67185;SDS011;54116;53.518;49.398;2024-01-30T04:03:29;11.63;;;3.97;;
67185;SDS011;54116;53.518;49.398;2024-01-30T04:05:55;12.82;;;3.97;;
67185;SDS011;54116;53.518;49.398;2024-01-30T04:08:21;12.05;;;4.15;;
67185;SDS011;54116;53.518;49.398;2024-01-30T04:10:47;9.48;;;3.63;;
67185;SDS011;54116;53.518;49.398;2024-01-30T04:13:13;10.80;;;3.35;;
67185;SDS011;54116;53.518;49.398;2024-01-30T04:15:39;10.07;;;3.45;;
67185;SDS011;54116;53.518;49.398;2024-01-30T04:18:05;11.88;;;4.10;;
67185;SDS011;54116;53.518;49.398;2024-01-30T04:20:32;10.27;;;3.97;;
67185;SDS011;54116;53.518;49.398;2024-01-30T04:22:58;9.98;;;4.18;;
67185;SDS011;54116;53.518;49.398;2024-01-30T04:25:24;10.68;;;3.72;;
67185;SDS011;54116;53.518;49.398;2024-01-30T04:27:50;11.52;;;3.85;;
67185;SDS011;54116;53.518;49.398;2024-01-30T04:30:16;13.05;;;3.42;;
67185;SDS011;54116;53.518;49.398;2024-01-30T04:32:42;11.55;;;3.88;;
67185;SDS011;54116;53.518;49.398;2024-01-30T04:35:09;10.40;;;4.25;;
67185;SDS011;54116;53.518;49.398;2024-01-30T04:37:35;10.82;;;3.75;;
67185;SDS011;54116;53.518;49.398;2024-01-30T04:40:02;9.85;;;3.92;;
67185;SDS011;54116;53.518;49.398;2024-01-30T04:42:28;10.32;;;3.75;;
67185;SDS011;54116;53.518;49.398;2024-01-30T04:44:54;11.98;;;4.20;;
67185;SDS011;54116;53.518;49.398;2024-01-30T04:47:21;11.70;;;3.67;;
67185;SDS011;54116;53.518;49.398;2024-01-30T04:49:47;11.45;;;4.13;;
67185;SDS011;54116;53.518;49.398;2024-01-30T04:52:13;10.25;;;3.50;;
67185;SDS011;54116;53.518;49.398;2024-01-30T04:54:39;11.55;;;4.35;;
67185;SDS011;54116;53.518;49.398;2024-01-30T04:57:05;12.10;;;4.22;;
67185;SDS011;54116;53.518;49.398;2024-01-30T04:59:37;11.13;;;4.20;;
67185;SDS011;54116;53.518;49.398;2024-01-30T05:02:03;12.45;;;4.22;;
67185;SDS011;54116;53.518;49.398;2024-01-30T05:04:29;12.55;;;4.43;;
67185;SDS011;54116;53.518;49.398;2024-01-30T05:06:55;10.02;;;3.55;;
67185;SDS011;54116;53.518;49.398;2024-01-30T05:09:22;10.82;;;4.07;;
67185;SDS011;54116;53.518;49.398;2024-01-30T05:11:48;13.55;;;4.38;;
67185;SDS011;54116;53.518;49.398;2024-01-30T05:14:14;11.52;;;3.85;;
67185;SDS011;54116;53.518;49.398;2024-01-30T05:16:43;10.93;;;4.03;;
67185;SDS011;54116;53.518;49.398;2024-01-30T05:19:13;12.00;;;4.57;;
67185;SDS011;54116;53.518;49.398;2024-01-30T05:21:39;13.38;;;4.32;;
67185;SDS011;54116;53.518;49.398;2024-01-30T05:26:32;9.60;;;3.78;;
67185;SDS011;54116;53.518;49.398;2024-01-30T05:28:58;11.50;;;4.05;;
67185;SDS011;54116;53.518;49.398;2024-01-30T05:31:24;10.60;;;4.05;;
67185;SDS011;54116;53.518;49.398;2024-01-30T05:33:52;12.27;;;4.30;;
67185;SDS011;54116;53.518;49.398;2024-01-30T05:36:18;12.35;;;4.78;;
67185;SDS011;54116;53.518;49.398;2024-01-30T05:38:44;13.63;;;4.22;;
67185;SDS011;54116;53.518;49.398;2024-01-30T05:41:10;10.07;;;4.10;;
67185;SDS011;54116;53.518;49.398;2024-01-30T05:43:36;11.35;;;4.22;;
67185;SDS011;54116;53.518;49.398;2024-01-30T05:48:29;11.02;;;4.65;;
67185;SDS011;54116;53.518;49.398;2024-01-30T05:50:56;10.43;;;4.00;;
67185;SDS011;54116;53.518;49.398;2024-01-30T05:53:22;14.82;;;5.03;;
67185;SDS011;54116;53.518;49.398;2024-01-30T05:55:48;14.45;;;4.43;;
67185;SDS011;54116;53.518;49.398;2024-01-30T05:58:14;12.43;;;4.13;;
67185;SDS011;54116;53.518;49.398;2024-01-30T06:00:40;13.65;;;4.82;;
67185;SDS011;54116;53.518;49.398;2024-01-30T06:03:07;11.65;;;3.85;;
67185;SDS011;54116;53.518;49.398;2024-01-30T06:05:33;12.32;;;4.20;;
67185;SDS011;54116;53.518;49.398;2024-01-30T06:07:59;12.93;;;4.88;;
67185;SDS011;54116;53.518;49.398;2024-01-30T06:10:25;13.07;;;5.13;;
67185;SDS011;54116;53.518;49.398;2024-01-30T06:12:51;12.35;;;5.07;;
67185;SDS011;54116;53.518;49.398;2024-01-30T06:15:17;13.27;;;4.95;;
67185;SDS011;54116;53.518;49.398;2024-01-30T06:17:43;12.77;;;4.85;;
67185;SDS011;54116;53.518;49.398;2024-01-30T06:20:09;14.23;;;5.32;;
67185;SDS011;54116;53.518;49.398;2024-01-30T06:22:36;15.98;;;5.47;;
67185;SDS011;54116;53.518;49.398;2024-01-30T06:25:02;15.30;;;5.88;;
67185;SDS011;54116;53.518;49.398;2024-01-30T06:27:28;14.45;;;5.68;;
67185;SDS011;54116;53.518;49.398;2024-01-30T06:29:54;15.32;;;6.18;;
67185;SDS011;54116;53.518;49.398;2024-01-30T06:32:20;19.60;;;6.57;;
67185;SDS011;54116;53.518;49.398;2024-01-30T06:34:46;17.90;;;6.38;;
67185;SDS011;54116;53.518;49.398;2024-01-30T06:37:13;15.50;;;6.07;;
67185;SDS011;54116;53.518;49.398;2024-01-30T06:39:39;12.98;;;5.43;;
67185;SDS011;54116;53.518;49.398;2024-01-30T06:42:05;16.35;;;6.25;;
67185;SDS011;54116;53.518;49.398;2024-01-30T06:44:31;15.93;;;6.75;;
67185;SDS011;54116;53.518;49.398;2024-01-30T06:46:57;18.70;;;6.72;;
67185;SDS011;54116;53.518;49.398;2024-01-30T06:49:23;18.63;;;6.95;;
67185;SDS011;54116;53.518;49.398;2024-01-30T06:51:49;15.05;;;6.03;;
67185;SDS011;54116;53.518;49.398;2024-01-30T06:54:15;21.38;;;6.70;;
67185;SDS011;54116;53.518;49.398;2024-01-30T06:56:42;15.90;;;6.10;;
67185;SDS011;54116;53.518;49.398;2024-01-30T06:59:08;18.35;;;6.70;;
67185;SDS011;54116;53.518;49.398;2024-01-30T07:01:34;18.75;;;6.65;;
67185;SDS011;54116;53.518;49.398;2024-01-30T07:04:00;18.40;;;6.43;;
67185;SDS011;54116;53.518;49.398;2024-01-30T07:06:26;16.00;;;6.90;;
67185;SDS011;54116;53.518;49.398;2024-01-30T07:08:52;15.43;;;6.60;;
67185;SDS011;54116;53.518;49.398;2024-01-30T07:11:21;17.70;;;6.47;;
67185;SDS011;54116;53.518;49.398;2024-01-30T07:13:51;16.52;;;6.15;;
67185;SDS011;54116;53.518;49.398;2024-01-30T07:16:17;15.73;;;6.75;;
67185;SDS011;54116;53.518;49.398;2024-01-30T07:18:44;13.38;;;5.75;;
67185;SDS011;54116;53.518;49.398;2024-01-30T07:21:10;11.38;;;4.97;;
67185;SDS011;54116;53.518;49.398;2024-01-30T07:26:07;16.08;;;5.20;;
67185;SDS011;54116;53.518;49.398;2024-01-30T07:28:34;14.88;;;6.15;;
67185;SDS011;54116;53.518;49.398;2024-01-30T07:31:01;14.88;;;5.95;;
67185;SDS011;54116;53.518;49.398;2024-01-30T07:33:27;13.95;;;5.60;;
67185;SDS011;54116;53.518;49.398;2024-01-30T07:35:53;15.55;;;6.43;;
67185;SDS011;54116;53.518;49.398;2024-01-30T07:38:19;14.15;;;5.35;;
67185;SDS011;54116;53.518;49.398;2024-01-30T07:40:46;13.73;;;6.28;;
67185;SDS011;54116;53.518;49.398;2024-01-30T07:45:38;19.02;;;6.13;;
67185;SDS011;54116;53.518;49.398;2024-01-30T07:48:06;14.40;;;5.13;;
67185;SDS011;54116;53.518;49.398;2024-01-30T07:50:32;14.80;;;5.93;;
67185;SDS011;54116;53.518;49.398;2024-01-30T07:52:59;14.73;;;5.65;;
67185;SDS011;54116;53.518;49.398;2024-01-30T07:55:27;13.63;;;5.35;;
67185;SDS011;54116;53.518;49.398;2024-01-30T07:57:54;12.85;;;5.55;;
67185;SDS011;54116;53.518;49.398;2024-01-30T08:00:21;15.48;;;6.20;;
67185;SDS011;54116;53.518;49.398;2024-01-30T08:05:21;14.55;;;5.50;;
67185;SDS011;54116;53.518;49.398;2024-01-30T08:07:50;15.20;;;5.63;;
67185;SDS011;54116;53.518;49.398;2024-01-30T08:10:16;13.88;;;5.85;;
67185;SDS011;54116;53.518;49.398;2024-01-30T08:12:44;13.80;;;5.40;;
67185;SDS011;54116;53.518;49.398;2024-01-30T08:15:11;16.05;;;6.43;;
67185;SDS011;54116;53.518;49.398;2024-01-30T08:17:38;13.85;;;6.00;;
67185;SDS011;54116;53.518;49.398;2024-01-30T08:20:05;14.63;;;6.03;;
67185;SDS011;54116;53.518;49.398;2024-01-30T08:22:32;14.82;;;5.75;;
67185;SDS011;54116;53.518;49.398;2024-01-30T08:24:58;16.42;;;5.82;;
67185;SDS011;54116;53.518;49.398;2024-01-30T08:27:24;16.50;;;6.10;;
67185;SDS011;54116;53.518;49.398;2024-01-30T08:29:50;14.75;;;5.55;;
67185;SDS011;54116;53.518;49.398;2024-01-30T08:32:16;12.90;;;5.68;;
67185;SDS011;54116;53.518;49.398;2024-01-30T08:34:42;15.77;;;5.30;;
67185;SDS011;54116;53.518;49.398;2024-01-30T08:37:08;12.25;;;5.03;;
67185;SDS011;54116;53.518;49.398;2024-01-30T08:39:34;13.40;;;5.63;;
67185;SDS011;54116;53.518;49.398;2024-01-30T08:42:01;13.18;;;5.38;;
67185;SDS011;54116;53.518;49.398;2024-01-30T08:44:27;15.18;;;5.70;;
67185;SDS011;54116;53.518;49.398;2024-01-30T08:46:58;15.05;;;5.85;;
67185;SDS011;54116;53.518;49.398;2024-01-30T08:49:24;14.55;;;5.65;;
67185;SDS011;54116;53.518;49.398;2024-01-30T08:51:50;13.60;;;5.63;;
67185;SDS011;54116;53.518;49.398;2024-01-30T08:54:16;15.77;;;5.95;;
67185;SDS011;54116;53.518;49.398;2024-01-30T08:56:43;15.07;;;5.65;;
67185;SDS011;54116;53.518;49.398;2024-01-30T08:59:09;12.05;;;5.13;;
67185;SDS011;54116;53.518;49.398;2024-01-30T09:01:35;13.73;;;5.55;;
67185;SDS011;54116;53.518;49.398;2024-01-30T09:04:01;15.15;;;5.57;;
67185;SDS011;54116;53.518;49.398;2024-01-30T09:06:27;14.32;;;5.55;;
67185;SDS011;54116;53.518;49.398;2024-01-30T09:11:20;15.90;;;5.55;;
67185;SDS011;54116;53.518;49.398;2024-01-30T09:13:46;13.00;;;5.57;;
67185;SDS011;54116;53.518;49.398;2024-01-30T09:16:12;13.50;;;5.15;;
67185;SDS011;54116;53.518;49.398;2024-01-30T09:18:39;15.80;;;5.45;;
67185;SDS011;54116;53.518;49.398;2024-01-30T09:21:05;15.43;;;5.70;;
67185;SDS011;54116;53.518;49.398;2024-01-30T09:23:31;14.02;;;5.70;;
67185;SDS011;54116;53.518;49.398;2024-01-30T09:25:57;12.68;;;5.40;;
67185;SDS011;54116;53.518;49.398;2024-01-30T09:28:24;12.45;;;5.22;;
67185;SDS011;54116;53.518;49.398;2024-01-30T09:30:50;14.02;;;4.97;;
67185;SDS011;54116;53.518;49.398;2024-01-30T09:33:16;13.00;;;5.25;;
67185;SDS011;54116;53.518;49.398;2024-01-30T09:35:42;12.65;;;5.38;;
67185;SDS011;54116;53.518;49.398;2024-01-30T09:38:08;12.57;;;4.82;;
67185;SDS011;54116;53.518;49.398;2024-01-30T09:40:34;14.23;;;5.70;;
67185;SDS011;54116;53.518;49.398;2024-01-30T09:43:00;13.02;;;5.70;;
67185;SDS011;54116;53.518;49.398;2024-01-30T09:45:26;12.65;;;5.18;;
67185;SDS011;54116;53.518;49.398;2024-01-30T09:47:53;16.98;;;5.88;;
67185;SDS011;54116;53.518;49.398;2024-01-30T09:50:19;13.82;;;5.15;;
67185;SDS011;54116;53.518;49.398;2024-01-30T09:52:46;12.98;;;5.22;;
67185;SDS011;54116;53.518;49.398;2024-01-30T09:55:13;13.75;;;5.00;;
67185;SDS011;54116;53.518;49.398;2024-01-30T10:00:05;15.32;;;5.25;;
67185;SDS011;54116;53.518;49.398;2024-01-30T10:02:35;15.85;;;5.45;;
67185;SDS011;54116;53.518;49.398;2024-01-30T10:05:01;14.43;;;5.25;;
67185;SDS011;54116;53.518;49.398;2024-01-30T10:07:28;14.27;;;5.18;;
67185;SDS011;54116;53.518;49.398;2024-01-30T10:09:56;15.70;;;6.15;;
67185;SDS011;54116;53.518;49.398;2024-01-30T10:12:22;13.75;;;5.88;;
67185;SDS011;54116;53.518;49.398;2024-01-30T10:14:49;17.73;;;6.05;;
67185;SDS011;54116;53.518;49.398;2024-01-30T10:17:15;14.93;;;5.63;;
67185;SDS011;54116;53.518;49.398;2024-01-30T10:19:41;16.02;;;5.45;;
67185;SDS011;54116;53.518;49.398;2024-01-30T10:22:09;17.38;;;5.72;;
67185;SDS011;54116;53.518;49.398;2024-01-30T10:24:35;18.20;;;6.18;;
67185;SDS011;54116;53.518;49.398;2024-01-30T10:27:02;17.02;;;6.25;;
67185;SDS011;54116;53.518;49.398;2024-01-30T10:29:28;14.20;;;5.55;;
67185;SDS011;54116;53.518;49.398;2024-01-30T10:32:00;16.00;;;5.80;;
67185;SDS011;54116;53.518;49.398;2024-01-30T10:34:30;18.83;;;6.93;;
67185;SDS011;54116;53.518;49.398;2024-01-30T10:37:07;16.52;;;6.70;;
67185;SDS011;54116;53.518;49.398;2024-01-30T10:39:43;16.67;;;6.28;;
67185;SDS011;54116;53.518;49.398;2024-01-30T10:42:15;15.88;;;5.95;;
67185;SDS011;54116;53.518;49.398;2024-01-30T10:47:40;14.90;;;5.65;;
67185;SDS011;54116;53.518;49.398;2024-01-30T10:50:09;17.15;;;6.45;;
67185;SDS011;54116;53.518;49.398;2024-01-30T10:52:36;14.82;;;5.65;;
67185;SDS011;54116;53.518;49.398;2024-01-30T10:55:05;16.88;;;6.07;;
67185;SDS011;54116;53.518;49.398;2024-01-30T10:57:32;17.25;;;6.53;;
67185;SDS011;54116;53.518;49.398;2024-01-30T11:00:00;15.80;;;6.00;;
67185;SDS011;54116;53.518;49.398;2024-01-30T11:02:42;16.83;;;6.43;;
67185;SDS011;54116;53.518;49.398;2024-01-30T11:05:10;15.90;;;5.70;;
67185;SDS011;54116;53.518;49.398;2024-01-30T11:07:38;18.33;;;6.40;;
67185;SDS011;54116;53.518;49.398;2024-01-30T11:10:06;15.50;;;5.50;;
67185;SDS011;54116;53.518;49.398;2024-01-30T11:12:38;16.17;;;6.30;;
67185;SDS011;54116;53.518;49.398;2024-01-30T11:15:12;14.07;;;5.45;;
67185;SDS011;54116;53.518;49.398;2024-01-30T11:17:40;15.98;;;6.00;;
67185;SDS011;54116;53.518;49.398;2024-01-30T11:20:19;15.32;;;6.22;;
67185;SDS011;54116;53.518;49.398;2024-01-30T11:22:55;14.30;;;5.28;;
67185;SDS011;54116;53.518;49.398;2024-01-30T11:25:23;14.38;;;5.70;;
67185;SDS011;54116;53.518;49.398;2024-01-30T11:27:54;12.82;;;4.90;;
67185;SDS011;54116;53.518;49.398;2024-01-30T11:33:07;16.38;;;6.18;;
67185;SDS011;54116;53.518;49.398;2024-01-30T11:35:40;15.02;;;6.05;;
67185;SDS011;54116;53.518;49.398;2024-01-30T11:38:08;15.07;;;5.55;;
67185;SDS011;54116;53.518;49.398;2024-01-30T11:40:37;17.13;;;5.85;;
67185;SDS011;54116;53.518;49.398;2024-01-30T11:43:05;17.50;;;5.88;;
67185;SDS011;54116;53.518;49.398;2024-01-30T11:45:33;16.90;;;5.90;;
67185;SDS011;54116;53.518;49.398;2024-01-30T11:48:00;11.70;;;4.25;;
67185;SDS011;54116;53.518;49.398;2024-01-30T11:50:30;20.48;;;6.03;;
67185;SDS011;54116;53.518;49.398;2024-01-30T11:52:57;15.48;;;5.28;;
67185;SDS011;54116;53.518;49.398;2024-01-30T11:55:25;14.43;;;5.13;;
67185;SDS011;54116;53.518;49.398;2024-01-30T11:57:54;15.43;;;5.45;;
67185;SDS011;54116;53.518;49.398;2024-01-30T12:00:21;14.40;;;5.72;;
67185;SDS011;54116;53.518;49.398;2024-01-30T12:02:50;14.73;;;5.30;;
67185;SDS011;54116;53.518;49.398;2024-01-30T12:05:23;15.75;;;5.60;;
67185;SDS011;54116;53.518;49.398;2024-01-30T12:07:50;14.82;;;5.70;;
67185;SDS011;54116;53.518;49.398;2024-01-30T12:10:16;13.93;;;5.05;;
67185;SDS011;54116;53.518;49.398;2024-01-30T12:12:46;13.88;;;5.13;;
67185;SDS011;54116;53.518;49.398;2024-01-30T12:15:14;13.90;;;5.30;;
67185;SDS011;54116;53.518;49.398;2024-01-30T12:17:41;12.80;;;4.43;;
67185;SDS011;54116;53.518;49.398;2024-01-30T12:20:07;13.70;;;5.05;;
67185;SDS011;54116;53.518;49.398;2024-01-30T12:22:36;14.82;;;5.57;;
67185;SDS011;54116;53.518;49.398;2024-01-30T12:25:12;15.05;;;5.15;;
67185;SDS011;54116;53.518;49.398;2024-01-30T12:27:41;14.55;;;5.07;;
67185;SDS011;54116;53.518;49.398;2024-01-30T12:30:09;16.92;;;5.63;;
67185;SDS011;54116;53.518;49.398;2024-01-30T12:32:37;14.02;;;5.00;;
67185;SDS011;54116;53.518;49.398;2024-01-30T12:35:10;14.77;;;5.65;;
67185;SDS011;54116;53.518;49.398;2024-01-30T12:37:36;13.75;;;5.32;;
67185;SDS011;54116;53.518;49.398;2024-01-30T12:40:02;13.88;;;4.95;;
67185;SDS011;54116;53.518;49.398;2024-01-30T12:42:29;14.10;;;5.18;;
67185;SDS011;54116;53.518;49.398;2024-01-30T12:44:57;15.73;;;5.55;;
67185;SDS011;54116;53.518;49.398;2024-01-30T12:47:24;16.02;;;5.00;;
67185;SDS011;54116;53.518;49.398;2024-01-30T12:52:19;16.15;;;5.55;;
67185;SDS011;54116;53.518;49.398;2024-01-30T12:54:47;15.48;;;4.93;;
67185;SDS011;54116;53.518;49.398;2024-01-30T12:57:13;12.15;;;4.93;;
67185;SDS011;54116;53.518;49.398;2024-01-30T12:59:40;15.27;;;5.70;;
67185;SDS011;54116;53.518;49.398;2024-01-30T13:02:06;18.83;;;5.65;;
67185;SDS011;54116;53.518;49.398;2024-01-30T13:04:32;14.73;;;5.07;;
67185;SDS011;54116;53.518;49.398;2024-01-30T13:06:58;12.93;;;5.18;;
67185;SDS011;54116;53.518;49.398;2024-01-30T13:09:26;11.57;;;4.28;;
67185;SDS011;54116;53.518;49.398;2024-01-30T13:11:52;11.27;;;4.32;;
67185;SDS011;54116;53.518;49.398;2024-01-30T13:14:18;13.35;;;4.78;;
67185;SDS011;54116;53.518;49.398;2024-01-30T13:16:45;12.77;;;4.63;;
67185;SDS011;54116;53.518;49.398;2024-01-30T13:19:11;12.18;;;4.28;;
67185;SDS011;54116;53.518;49.398;2024-01-30T13:21:37;13.52;;;4.95;;
67185;SDS011;54116;53.518;49.398;2024-01-30T13:24:03;10.00;;;4.05;;
67185;SDS011;54116;53.518;49.398;2024-01-30T13:26:31;12.60;;;4.75;;
67185;SDS011;54116;53.518;49.398;2024-01-30T13:28:58;12.95;;;4.38;;
67185;SDS011;54116;53.518;49.398;2024-01-30T13:31:24;12.40;;;5.25;;
67185;SDS011;54116;53.518;49.398;2024-01-30T13:33:51;11.18;;;4.47;;
67185;SDS011;54116;53.518;49.398;2024-01-30T13:36:17;11.70;;;4.65;;
67185;SDS011;54116;53.518;49.398;2024-01-30T13:38:43;9.38;;;3.72;;
67185;SDS011;54116;53.518;49.398;2024-01-30T13:41:09;12.32;;;4.35;;
67185;SDS011;54116;53.518;49.398;2024-01-30T13:43:35;11.20;;;4.30;;
67185;SDS011;54116;53.518;49.398;2024-01-30T13:46:01;12.00;;;4.90;;
67185;SDS011;54116;53.518;49.398;2024-01-30T13:48:28;12.65;;;4.68;;
67185;SDS011;54116;53.518;49.398;2024-01-30T13:50:55;15.35;;;4.97;;
67185;SDS011;54116;53.518;49.398;2024-01-30T13:53:21;12.10;;;4.72;;
67185;SDS011;54116;53.518;49.398;2024-01-30T13:55:47;15.73;;;4.93;;
67185;SDS011;54116;53.518;49.398;2024-01-30T13:58:13;13.52;;;5.57;;
67185;SDS011;54116;53.518;49.398;2024-01-30T14:00:39;12.18;;;4.88;;
67185;SDS011;54116;53.518;49.398;2024-01-30T14:03:06;15.07;;;5.03;;
67185;SDS011;54116;53.518;49.398;2024-01-30T14:05:32;16.75;;;6.93;;
67185;SDS011;54116;53.518;49.398;2024-01-30T14:07:58;16.10;;;5.43;;
67185;SDS011;54116;53.518;49.398;2024-01-30T14:10:25;18.00;;;5.47;;
67185;SDS011;54116;53.518;49.398;2024-01-30T14:12:51;16.35;;;6.25;;
67185;SDS011;54116;53.518;49.398;2024-01-30T14:15:18;16.48;;;5.63;;
67185;SDS011;54116;53.518;49.398;2024-01-30T14:17:44;13.68;;;5.20;;
67185;SDS011;54116;53.518;49.398;2024-01-30T14:20:14;12.55;;;5.28;;
67185;SDS011;54116;53.518;49.398;2024-01-30T14:22:42;13.57;;;5.10;;
67185;SDS011;54116;53.518;49.398;2024-01-30T14:25:08;14.65;;;5.45;;
67185;SDS011;54116;53.518;49.398;2024-01-30T14:27:35;14.95;;;5.50;;
67185;SDS011;54116;53.518;49.398;2024-01-30T14:30:02;16.38;;;5.72;;
67185;SDS011;54116;53.518;49.398;2024-01-30T14:32:28;16.98;;;6.18;;
67185;SDS011;54116;53.518;49.398;2024-01-30T14:34:54;15.70;;;6.13;;
67185;SDS011;54116;53.518;49.398;2024-01-30T14:37:21;13.77;;;5.57;;
67185;SDS011;54116;53.518;49.398;2024-01-30T14:39:47;14.60;;;5.32;;
67185;SDS011;54116;53.518;49.398;2024-01-30T14:42:15;14.77;;;6.13;;
67185;SDS011;54116;53.518;49.398;2024-01-30T14:44:41;17.70;;;6.22;;
67185;SDS011;54116;53.518;49.398;2024-01-30T14:47:08;19.42;;;6.68;;
67185;SDS011;54116;53.518;49.398;2024-01-30T14:49:34;19.83;;;6.97;;
67185;SDS011;54116;53.518;49.398;2024-01-30T14:52:00;17.52;;;6.63;;
67185;SDS011;54116;53.518;49.398;2024-01-30T14:54:29;16.52;;;6.35;;
67185;SDS011;54116;53.518;49.398;2024-01-30T14:56:56;16.77;;;5.53;;